createdAt,value
2023-02-07T00:00:26.611Z,20.40
2023-02-07T00:02:55.920Z,20.40
2023-02-07T00:05:23.648Z,20.40
2023-02-07T00:07:51.340Z,20.40
2023-02-07T00:10:19.029Z,20.40
2023-02-07T00:12:48.132Z,20.40
2023-02-07T00:15:15.783Z,20.40
2023-02-07T00:17:43.445Z,20.30
2023-02-07T00:20:12.588Z,20.30
2023-02-07T00:22:40.248Z,20.30
2023-02-07T00:25:07.973Z,20.30
2023-02-07T00:27:35.682Z,20.30
2023-02-07T00:30:05.170Z,20.30
2023-02-07T00:32:33.014Z,20.30
2023-02-07T00:35:00.763Z,20.30
2023-02-07T00:37:28.542Z,20.20
2023-02-07T00:39:56.180Z,20.20
2023-02-07T00:42:23.866Z,20.20
2023-02-07T00:44:51.564Z,20.20
2023-02-07T00:47:20.575Z,20.20
2023-02-07T00:49:48.266Z,20.30
2023-02-07T00:52:15.946Z,20.20
2023-02-07T00:54:43.631Z,20.20
2023-02-07T00:57:11.325Z,20.20
2023-02-07T00:59:39.029Z,20.20
2023-02-07T01:02:06.833Z,20.20
2023-02-07T01:04:36.947Z,20.30
2023-02-07T01:07:04.737Z,20.30
2023-02-07T01:09:32.488Z,20.20
2023-02-07T01:12:00.245Z,20.20
2023-02-07T01:14:28.070Z,20.20
2023-02-07T01:16:55.803Z,20.20
2023-02-07T01:19:23.510Z,20.10
2023-02-07T01:21:52.867Z,20.10
2023-02-07T01:24:20.575Z,20.10
2023-02-07T01:26:48.334Z,20.10
2023-02-07T01:29:16.330Z,20.10
2023-02-07T01:31:44.170Z,20.10
2023-02-07T01:34:13.077Z,20.10
2023-02-07T01:36:41.343Z,20.10
2023-02-07T01:39:11.353Z,20.00
2023-02-07T01:41:39.115Z,20.10
2023-02-07T01:44:07.723Z,20.00
2023-02-07T01:46:36.065Z,20.00
2023-02-07T01:49:06.181Z,20.00
2023-02-07T01:51:33.990Z,20.00
2023-02-07T01:54:04.623Z,20.00
2023-02-07T01:56:34.219Z,20.00
2023-02-07T01:59:02.444Z,20.00
2023-02-07T02:01:30.185Z,20.00
2023-02-07T02:03:57.914Z,20.00
2023-02-07T02:06:28.169Z,20.00
2023-02-07T02:08:56.581Z,20.00
2023-02-07T02:11:53.762Z,20.00
2023-02-07T02:14:29.896Z,20.00
2023-02-07T02:17:00.045Z,19.90
2023-02-07T02:19:50.014Z,19.90
2023-02-07T02:22:30.969Z,19.90
2023-02-07T02:25:21.477Z,20.00
2023-02-07T02:28:14.668Z,19.90
2023-02-07T02:31:03.446Z,19.90
2023-02-07T02:33:38.354Z,19.90
2023-02-07T02:36:10.040Z,19.90
2023-02-07T02:38:39.826Z,19.80
2023-02-07T02:41:10.286Z,19.80
2023-02-07T02:43:39.175Z,19.80
2023-02-07T02:46:08.144Z,19.80
2023-02-07T02:48:37.197Z,19.80
2023-02-07T02:51:05.542Z,19.80
2023-02-07T02:53:33.393Z,19.80
2023-02-07T02:56:28.668Z,19.80
2023-02-07T02:59:13.743Z,19.80
2023-02-07T03:01:46.561Z,19.80
2023-02-07T03:04:32.578Z,19.80
2023-02-07T03:07:17.854Z,19.90
2023-02-07T03:09:49.714Z,19.80
2023-02-07T03:12:19.160Z,19.80
2023-02-07T03:14:52.533Z,19.80
2023-02-07T03:17:22.467Z,19.80
2023-02-07T03:19:54.147Z,19.70
2023-02-07T03:22:23.105Z,19.70
2023-02-07T03:24:52.504Z,19.70
2023-02-07T03:27:21.363Z,19.70
2023-02-07T03:29:50.088Z,19.70
2023-02-07T03:32:18.018Z,19.70
2023-02-07T03:34:50.430Z,19.70
2023-02-07T03:37:21.198Z,19.70
2023-02-07T03:39:48.895Z,19.70
2023-02-07T03:42:17.905Z,19.60
2023-02-07T03:44:45.575Z,19.70
2023-02-07T03:47:13.245Z,19.60
2023-02-07T03:49:40.917Z,19.60
2023-02-07T03:52:08.614Z,19.70
2023-02-07T03:54:37.622Z,19.60
2023-02-07T03:57:05.319Z,19.60
2023-02-07T03:59:33.076Z,19.70
2023-02-07T04:02:02.251Z,19.60
2023-02-07T04:04:30.010Z,19.60
2023-02-07T04:06:57.657Z,19.60
2023-02-07T04:09:25.999Z,19.60
2023-02-07T04:11:55.112Z,19.60
2023-02-07T04:14:22.928Z,19.60
2023-02-07T04:16:50.713Z,19.60
2023-02-07T04:19:18.423Z,19.60
2023-02-07T04:21:46.082Z,19.60
2023-02-07T04:24:13.783Z,19.60
2023-02-07T04:26:41.436Z,19.50
2023-02-07T04:29:10.541Z,19.50
2023-02-07T04:31:38.490Z,19.50
2023-02-07T04:34:06.736Z,19.50
2023-02-07T04:36:34.389Z,19.50
2023-02-07T04:39:02.090Z,19.50
2023-02-07T04:41:29.757Z,19.40
2023-02-07T04:43:57.589Z,19.40
2023-02-07T04:46:27.934Z,19.50
2023-02-07T04:48:55.596Z,19.50
2023-02-07T04:51:23.229Z,19.50
2023-02-07T04:53:50.892Z,19.50
2023-02-07T04:56:18.554Z,19.50
2023-02-07T04:58:46.220Z,19.50
2023-02-07T05:01:13.909Z,19.50
2023-02-07T05:03:42.929Z,19.50
2023-02-07T05:06:10.600Z,19.50
2023-02-07T05:08:38.322Z,19.50
2023-02-07T05:11:06.473Z,19.50
2023-02-07T05:13:34.136Z,19.40
2023-02-07T05:16:03.230Z,19.40
2023-02-07T05:18:31.005Z,19.40
2023-02-07T05:21:00.268Z,19.40
2023-02-07T05:23:27.949Z,19.40
2023-02-07T05:25:55.606Z,19.40
2023-02-07T05:28:23.258Z,19.40
2023-02-07T05:30:54.265Z,19.30
2023-02-07T05:33:21.028Z,19.30
2023-02-07T05:35:48.682Z,19.30
2023-02-07T05:38:18.498Z,19.30
2023-02-07T05:40:46.252Z,19.30
2023-02-07T05:43:13.940Z,19.30
2023-02-07T05:45:41.886Z,19.30
2023-02-07T05:48:09.642Z,19.30
2023-02-07T05:50:37.297Z,19.30
2023-02-07T05:53:10.174Z,19.30
2023-02-07T05:55:39.394Z,19.30
2023-02-07T05:58:07.232Z,19.30
2023-02-07T06:00:35.038Z,19.30
2023-02-07T06:03:02.725Z,19.30
2023-02-07T06:05:31.876Z,19.30
2023-02-07T06:07:59.883Z,19.30
2023-02-07T06:10:27.561Z,19.30
2023-02-07T06:12:56.570Z,19.20
2023-02-07T06:15:24.241Z,19.20
2023-02-07T06:17:51.910Z,19.20
2023-02-07T06:20:19.819Z,19.20
2023-02-07T06:22:47.513Z,19.20
2023-02-07T06:25:15.246Z,19.20
2023-02-07T06:27:43.001Z,19.20
2023-02-07T06:30:13.790Z,19.20
2023-02-07T06:32:41.485Z,19.10
2023-02-07T06:35:09.683Z,19.20
2023-02-07T06:37:37.435Z,19.20
2023-02-07T06:40:05.986Z,19.20
2023-02-07T06:42:33.739Z,19.20
2023-02-07T06:45:01.456Z,19.20
2023-02-07T06:47:30.461Z,19.20
2023-02-07T06:49:58.240Z,19.20
2023-02-07T06:52:25.940Z,19.20
2023-02-07T06:54:53.616Z,19.20
2023-02-07T06:57:21.366Z,19.10
2023-02-07T06:59:49.027Z,19.10
2023-02-07T07:02:17.180Z,19.10
2023-02-07T07:04:46.149Z,19.10
2023-02-07T07:07:13.845Z,19.10
2023-02-07T07:09:41.633Z,19.10
2023-02-07T07:12:09.452Z,19.10
2023-02-07T07:14:37.122Z,19.10
2023-02-07T07:17:04.879Z,19.10
2023-02-07T07:19:32.570Z,19.10
2023-02-07T07:22:01.709Z,19.10
2023-02-07T07:24:29.405Z,19.10
2023-02-07T07:26:57.449Z,19.10
2023-02-07T07:29:25.259Z,19.10
2023-02-07T07:31:52.989Z,19.10
2023-02-07T07:34:20.962Z,19.10
2023-02-07T07:36:49.368Z,19.10
2023-02-07T07:39:18.372Z,19.10
2023-02-07T07:41:46.051Z,19.10
2023-02-07T07:44:28.905Z,19.10
2023-02-07T07:46:56.637Z,19.10
2023-02-07T07:49:24.382Z,19.10
2023-02-07T07:51:52.059Z,19.10
2023-02-07T07:54:21.088Z,19.10
2023-02-07T07:56:48.785Z,19.10
2023-02-07T07:59:23.856Z,19.10
2023-02-07T08:01:51.968Z,19.00
2023-02-07T08:04:19.702Z,19.10
2023-02-07T08:06:47.369Z,19.10
2023-02-07T08:09:15.073Z,19.10
2023-02-07T08:11:44.091Z,19.10
2023-02-07T08:14:11.754Z,19.10
2023-02-07T08:16:39.429Z,19.10
2023-02-07T08:19:07.108Z,19.10
2023-02-07T08:21:35.002Z,19.10
2023-02-07T08:24:02.711Z,19.10
2023-02-07T08:26:30.436Z,19.10
2023-02-07T08:28:59.451Z,19.00
2023-02-07T08:31:27.193Z,19.10
2023-02-07T08:33:54.944Z,19.00
2023-02-07T08:36:22.656Z,19.00
2023-02-07T08:38:51.168Z,19.00
2023-02-07T08:41:18.912Z,19.10
2023-02-07T08:43:46.572Z,19.10
2023-02-07T08:46:15.768Z,19.00
2023-02-07T08:48:43.460Z,19.00
2023-02-07T08:51:11.165Z,19.10
2023-02-07T08:53:38.897Z,19.10
2023-02-07T08:56:08.576Z,19.10
2023-02-07T08:58:36.303Z,19.10
2023-02-07T09:01:04.041Z,19.10
2023-02-07T09:03:33.069Z,19.10
2023-02-07T09:06:00.882Z,19.20
2023-02-07T09:08:28.617Z,19.20
2023-02-07T09:10:56.361Z,19.20
2023-02-07T09:13:24.161Z,19.20
2023-02-07T09:15:55.455Z,19.20
2023-02-07T09:18:23.204Z,19.20
2023-02-07T09:20:52.241Z,19.30
2023-02-07T09:23:19.982Z,19.30
2023-02-07T09:25:48.109Z,19.30
2023-02-07T09:28:15.908Z,19.40
2023-02-07T09:30:43.789Z,19.30
2023-02-07T09:33:11.696Z,19.40
2023-02-07T09:35:39.882Z,19.30
2023-02-07T09:38:09.556Z,19.40
2023-02-07T09:40:37.490Z,19.40
2023-02-07T09:43:11.366Z,19.30
2023-02-07T09:45:40.742Z,19.30
2023-02-07T09:48:13.231Z,19.30
2023-02-07T09:50:42.844Z,19.30
2023-02-07T09:53:15.748Z,19.30
2023-02-07T09:55:47.646Z,19.30
2023-02-07T09:58:16.160Z,19.30
2023-02-07T10:00:43.988Z,19.30
2023-02-07T10:03:14.839Z,19.30
2023-02-07T10:05:44.278Z,19.30
2023-02-07T10:08:15.311Z,19.30
2023-02-07T10:10:45.243Z,19.30
2023-02-07T10:13:38.553Z,19.30
2023-02-07T10:16:20.488Z,19.30
2023-02-07T10:18:49.339Z,19.30
2023-02-07T10:21:22.532Z,19.30
2023-02-07T10:24:08.236Z,19.30
2023-02-07T10:26:37.934Z,19.30
2023-02-07T10:29:26.757Z,19.30
2023-02-07T10:31:55.835Z,19.30
2023-02-07T10:34:24.496Z,19.20
2023-02-07T10:36:53.606Z,19.20
2023-02-07T10:39:25.789Z,19.30
2023-02-07T10:41:55.913Z,19.30
2023-02-07T10:44:23.680Z,19.20
2023-02-07T10:46:55.136Z,19.20
2023-02-07T10:49:25.201Z,19.20
2023-02-07T10:51:53.480Z,19.20
2023-02-07T10:54:24.247Z,19.20
2023-02-07T10:56:56.004Z,19.20
2023-02-07T10:59:33.750Z,19.20
2023-02-07T11:02:01.441Z,19.20
2023-02-07T11:04:35.802Z,19.20
2023-02-07T11:07:04.733Z,19.10
2023-02-07T11:09:37.041Z,19.10
2023-02-07T11:12:14.588Z,19.10
2023-02-07T11:14:45.626Z,19.20
2023-02-07T11:17:21.652Z,19.10
2023-02-07T11:19:49.413Z,19.20
2023-02-07T11:22:19.303Z,19.20
2023-02-07T11:24:47.077Z,19.20
2023-02-07T11:27:17.058Z,19.20
2023-02-07T11:29:47.572Z,19.20
2023-02-07T11:32:15.451Z,19.20
2023-02-07T11:34:48.709Z,19.20
2023-02-07T11:37:22.797Z,19.20
2023-02-07T11:39:51.775Z,19.20
2023-02-07T11:42:21.534Z,19.20
2023-02-07T11:44:49.735Z,19.30
2023-02-07T11:47:18.834Z,19.30
2023-02-07T11:49:47.326Z,19.30
2023-02-07T11:52:15.044Z,19.30
2023-02-07T11:54:43.321Z,19.20
2023-02-07T11:57:13.469Z,19.20
2023-02-07T11:59:47.394Z,19.20
2023-02-07T12:02:18.029Z,19.20
2023-02-07T12:04:45.712Z,19.30
2023-02-07T12:07:14.796Z,19.20
2023-02-07T12:09:44.289Z,19.20
2023-02-07T12:12:14.774Z,19.20
2023-02-07T12:14:44.633Z,19.20
2023-02-07T12:17:17.098Z,19.20
2023-02-07T12:19:50.551Z,19.20
2023-02-07T12:22:19.726Z,19.20
2023-02-07T12:24:53.402Z,19.20
2023-02-07T12:27:21.122Z,19.20
2023-02-07T12:29:53.344Z,19.30
2023-02-07T12:32:29.977Z,19.40
2023-02-07T12:35:01.122Z,19.50
2023-02-07T12:37:33.419Z,19.50
2023-02-07T12:40:04.528Z,19.60
2023-02-07T12:42:35.688Z,19.70
2023-02-07T12:45:03.501Z,19.80
2023-02-07T12:47:45.736Z,20.00
2023-02-07T12:50:22.070Z,20.80
2023-02-07T12:52:55.936Z,22.00
2023-02-07T12:55:28.590Z,23.00
2023-02-07T12:58:02.738Z,23.60
2023-02-07T13:00:33.098Z,24.00
2023-02-07T13:03:10.940Z,24.80
2023-02-07T13:05:44.918Z,25.10
2023-02-07T13:08:17.733Z,25.60
2023-02-07T13:10:50.073Z,25.40
2023-02-07T13:13:20.253Z,25.10
2023-02-07T13:15:50.289Z,25.10
2023-02-07T13:18:21.302Z,25.70
2023-02-07T13:20:55.062Z,26.40
2023-02-07T13:23:23.657Z,27.00
2023-02-07T13:25:54.046Z,26.60
2023-02-07T13:28:26.337Z,26.50
2023-02-07T13:30:54.432Z,27.00
2023-02-07T13:33:30.918Z,27.40
2023-02-07T13:36:00.887Z,27.70
2023-02-07T13:38:42.784Z,27.80
2023-02-07T13:41:11.930Z,27.30
2023-02-07T13:43:47.850Z,27.50
2023-02-07T13:46:27.085Z,27.90
2023-02-07T13:48:58.636Z,28.10
2023-02-07T13:51:29.812Z,28.00
2023-02-07T13:54:00.408Z,27.90
2023-02-07T13:56:51.942Z,28.20
2023-02-07T13:59:43.536Z,28.40
2023-02-07T14:02:17.295Z,28.20
2023-02-07T14:04:50.611Z,27.60
2023-02-07T14:07:23.158Z,26.30
2023-02-07T14:09:50.965Z,25.30
2023-02-07T14:12:23.240Z,24.50
2023-02-07T14:15:02.330Z,23.90
2023-02-07T14:17:59.246Z,23.30
2023-02-07T14:20:48.822Z,22.80
2023-02-07T14:23:17.453Z,22.40
2023-02-07T14:25:45.556Z,22.00
2023-02-07T14:28:37.360Z,21.90
2023-02-07T14:31:21.743Z,21.70
2023-02-07T14:34:10.891Z,21.60
2023-02-07T14:36:39.953Z,21.40
2023-02-07T14:39:29.694Z,21.30
2023-02-07T14:42:03.854Z,21.10
2023-02-07T14:44:35.809Z,21.00
2023-02-07T14:47:03.968Z,20.80
2023-02-07T14:49:33.539Z,20.70
2023-02-07T14:52:05.630Z,20.60
2023-02-07T14:54:37.056Z,20.60
2023-02-07T14:57:08.504Z,20.40
2023-02-07T14:59:38.825Z,20.40
2023-02-07T15:02:35.203Z,20.30
2023-02-07T15:05:21.430Z,20.20
2023-02-07T15:07:55.075Z,20.10
2023-02-07T15:10:24.570Z,20.10
2023-02-07T15:12:53.715Z,20.00
2023-02-07T15:15:23.000Z,20.00
2023-02-07T15:17:50.871Z,19.90
2023-02-07T15:20:19.874Z,19.90
2023-02-07T15:22:50.652Z,19.80
2023-02-07T15:25:18.397Z,19.80
2023-02-07T15:28:01.442Z,19.80
2023-02-07T15:30:29.282Z,19.80
2023-02-07T15:32:57.090Z,19.70
2023-02-07T15:35:26.722Z,19.70
2023-02-07T15:37:56.095Z,19.70
2023-02-07T15:40:26.650Z,19.60
2023-02-07T15:42:56.338Z,19.60
2023-02-07T15:45:26.070Z,19.60
2023-02-07T15:47:58.391Z,19.50
2023-02-07T15:50:27.304Z,19.50
2023-02-07T15:52:56.756Z,19.50
2023-02-07T15:55:26.950Z,19.40
2023-02-07T15:57:54.654Z,19.40
2023-02-07T16:00:23.133Z,19.40
2023-02-07T16:02:56.566Z,19.40
2023-02-07T16:05:25.150Z,19.30
2023-02-07T16:07:54.000Z,19.30
2023-02-07T16:10:33.713Z,19.30
2023-02-07T16:13:01.617Z,19.30
2023-02-07T16:15:32.029Z,19.20
2023-02-07T16:17:59.883Z,19.30
2023-02-07T16:20:28.072Z,19.30
2023-02-07T16:22:56.867Z,19.20
2023-02-07T16:25:26.602Z,19.20
2023-02-07T16:27:55.990Z,19.20
2023-02-07T16:30:25.257Z,19.20
2023-02-07T16:32:52.964Z,19.20
2023-02-07T16:35:22.132Z,19.20
2023-02-07T16:37:49.945Z,19.20
2023-02-07T16:40:18.147Z,19.20
2023-02-07T16:42:45.967Z,19.10
2023-02-07T16:45:21.252Z,19.10
2023-02-07T16:47:48.929Z,19.10
2023-02-07T16:50:18.551Z,19.10
2023-02-07T16:52:46.803Z,19.00
2023-02-07T16:55:14.489Z,19.00
2023-02-07T16:57:42.311Z,19.00
2023-02-07T17:00:11.292Z,19.00
2023-02-07T17:02:40.988Z,19.00
2023-02-07T17:05:08.999Z,19.00
2023-02-07T17:07:36.730Z,18.90
2023-02-07T17:10:13.561Z,18.90
2023-02-07T17:12:43.055Z,18.90
2023-02-07T17:15:10.874Z,18.90
2023-02-07T17:17:39.929Z,18.90
2023-02-07T17:20:18.956Z,18.90
2023-02-07T17:22:46.639Z,18.90
2023-02-07T17:25:14.332Z,18.90
2023-02-07T17:27:42.052Z,18.80
2023-02-07T17:30:13.995Z,18.80
2023-02-07T17:32:43.507Z,18.90
2023-02-07T17:35:11.188Z,18.80
2023-02-07T17:37:38.897Z,18.80
2023-02-07T17:40:15.990Z,18.80
2023-02-07T17:42:43.667Z,18.80
2023-02-07T17:45:11.350Z,18.80
2023-02-07T17:47:39.084Z,18.80
2023-02-07T17:50:09.141Z,18.70
2023-02-07T17:52:36.881Z,18.70
2023-02-07T17:55:05.037Z,18.70
2023-02-07T17:57:32.701Z,18.70
2023-02-07T18:00:00.521Z,18.70
2023-02-07T18:02:28.336Z,18.60
2023-02-07T18:04:58.011Z,18.60
2023-02-07T18:07:27.867Z,18.70
2023-02-07T18:09:55.642Z,18.60
2023-02-07T18:12:23.336Z,18.60
2023-02-07T18:14:52.097Z,18.60
2023-02-07T18:17:20.059Z,18.60
2023-02-07T18:19:47.752Z,18.60
2023-02-07T18:22:15.540Z,18.70
2023-02-07T18:24:44.598Z,18.70
2023-02-07T18:27:13.061Z,18.60
2023-02-07T18:29:40.768Z,18.60
2023-02-07T18:32:08.573Z,18.60
2023-02-07T18:34:36.299Z,18.60
2023-02-07T18:37:03.987Z,18.60
2023-02-07T18:39:31.687Z,18.60
2023-02-07T18:42:01.049Z,18.60
2023-02-07T18:44:28.784Z,18.60
2023-02-07T18:46:56.669Z,18.60
2023-02-07T18:49:24.507Z,18.60
2023-02-07T18:51:52.210Z,18.60
2023-02-07T18:54:19.987Z,18.60
2023-02-07T18:56:52.036Z,18.60
2023-02-07T18:59:21.412Z,18.60
2023-02-07T19:01:50.924Z,18.50
2023-02-07T19:04:18.815Z,18.50
2023-02-07T19:06:46.767Z,18.50
2023-02-07T19:09:14.617Z,18.50
2023-02-07T19:11:42.328Z,18.50
2023-02-07T19:14:13.808Z,18.50
2023-02-07T19:16:42.893Z,18.50
2023-02-07T19:19:10.935Z,18.50
2023-02-07T19:21:38.702Z,18.50
2023-02-07T19:24:08.546Z,18.50
2023-02-07T19:26:36.374Z,18.50
2023-02-07T19:29:05.191Z,18.50
2023-02-07T19:31:33.083Z,18.50
2023-02-07T19:34:02.160Z,18.50
2023-02-07T19:36:31.201Z,18.40
2023-02-07T19:38:59.129Z,18.40
2023-02-07T19:41:27.760Z,18.40
2023-02-07T19:43:55.513Z,18.40
2023-02-07T19:46:23.456Z,18.40
2023-02-07T19:48:51.272Z,18.40
2023-02-07T19:51:21.536Z,18.40
2023-02-07T19:53:51.143Z,18.40
2023-02-07T19:56:19.452Z,18.40
2023-02-07T19:58:48.517Z,18.40
2023-02-07T20:01:16.418Z,18.40
2023-02-07T20:03:44.284Z,18.40
2023-02-07T20:06:13.089Z,18.40
2023-02-07T20:08:42.126Z,18.40
2023-02-07T20:11:10.932Z,18.40
2023-02-07T20:13:39.493Z,18.40
2023-02-07T20:16:07.968Z,18.40
2023-02-07T20:18:35.740Z,18.40
2023-02-07T20:21:10.903Z,18.40
2023-02-07T20:23:41.540Z,18.40
2023-02-07T20:26:12.768Z,18.40
2023-02-07T20:28:41.661Z,18.40
2023-02-07T20:31:10.113Z,18.40
2023-02-07T20:33:38.083Z,18.30
2023-02-07T20:36:06.661Z,18.30
2023-02-07T20:38:34.370Z,18.30
2023-02-07T20:41:06.407Z,18.30
2023-02-07T20:43:35.468Z,18.40
2023-02-07T20:46:07.865Z,18.40
2023-02-07T20:48:35.689Z,18.40
2023-02-07T20:51:09.639Z,18.30
2023-02-07T20:53:38.874Z,18.30
2023-02-07T20:56:08.272Z,18.30
2023-02-07T20:58:37.277Z,18.30
2023-02-07T21:01:09.634Z,18.30
2023-02-07T21:03:37.491Z,18.30
2023-02-07T21:06:05.540Z,18.30
2023-02-07T21:08:33.388Z,18.30
2023-02-07T21:11:01.178Z,18.30
2023-02-07T21:13:28.909Z,18.30
2023-02-07T21:16:03.428Z,18.30
2023-02-07T21:18:31.505Z,18.30
2023-02-07T21:20:59.811Z,18.30
2023-02-07T21:23:27.619Z,18.30
2023-02-07T21:25:55.375Z,18.30
2023-02-07T21:28:23.164Z,18.20
2023-02-07T21:30:50.873Z,18.20
2023-02-07T21:33:19.904Z,18.20
2023-02-07T21:35:48.545Z,18.20
2023-02-07T21:38:16.208Z,18.20
2023-02-07T21:40:44.401Z,18.20
2023-02-07T21:43:12.091Z,18.20
2023-02-07T21:45:39.769Z,18.20
2023-02-07T21:48:07.606Z,18.20
2023-02-07T21:50:36.596Z,18.20
2023-02-07T21:53:04.279Z,18.20
2023-02-07T21:55:32.026Z,18.20
2023-02-07T21:57:59.769Z,18.20
2023-02-07T22:00:27.461Z,18.20
2023-02-07T22:02:55.166Z,18.20
2023-02-07T22:05:22.875Z,18.20
2023-02-07T22:07:51.918Z,18.20
2023-02-07T22:10:19.628Z,18.20
2023-02-07T22:12:47.338Z,18.20
2023-02-07T22:15:15.050Z,18.20
2023-02-07T22:17:42.738Z,18.20
2023-02-07T22:20:11.485Z,18.20
2023-02-07T22:22:39.175Z,18.20
2023-02-07T22:25:09.199Z,18.20
2023-02-07T22:27:38.086Z,18.20
2023-02-07T22:30:06.583Z,18.20
2023-02-07T22:32:34.309Z,18.20
2023-02-07T22:35:01.999Z,18.20
2023-02-07T22:37:29.707Z,18.20
2023-02-07T22:39:57.564Z,18.20
2023-02-07T22:42:26.565Z,18.20
2023-02-07T22:44:54.280Z,18.20
2023-02-07T22:47:21.925Z,18.10
2023-02-07T22:49:49.632Z,18.10
2023-02-07T22:52:17.319Z,18.10
2023-02-07T22:54:45.029Z,18.10
2023-02-07T22:57:15.481Z,18.10
2023-02-07T22:59:44.538Z,18.10
2023-02-07T23:02:12.264Z,18.10
2023-02-07T23:04:40.056Z,18.10
2023-02-07T23:07:07.766Z,18.10
2023-02-07T23:09:35.468Z,18.10
2023-02-07T23:12:03.240Z,18.10
2023-02-07T23:14:30.922Z,18.10
2023-02-07T23:16:59.927Z,18.10
2023-02-07T23:19:27.601Z,18.10
2023-02-07T23:21:55.260Z,18.00
2023-02-07T23:24:22.958Z,18.00
2023-02-07T23:26:50.630Z,18.00
2023-02-07T23:29:18.282Z,18.00
2023-02-07T23:31:45.959Z,18.10
2023-02-07T23:34:15.029Z,18.10
2023-02-07T23:36:42.950Z,18.10
2023-02-07T23:39:10.863Z,18.10
2023-02-07T23:41:38.570Z,18.10
2023-02-07T23:44:06.280Z,18.10
2023-02-07T23:46:34.592Z,18.10
2023-02-07T23:49:02.307Z,18.10
2023-02-07T23:51:31.354Z,18.10
2023-02-07T23:53:59.078Z,18.10
2023-02-07T23:56:26.751Z,18.10
2023-02-07T23:58:54.497Z,18.00
